Time;durP1;ratioP1;P1;durP2;ratioP2;P2;SDS_P1;SDS_P2;PMS_P1;PMS_P2;Temp;Humidity;BMP_temperature;BMP_pressure;BME280_temperature;BME280_humidity;BME280_pressure;Samples;Min_cycle;Max_cycle;Signal;HPM_P1;HPM_P2
2022/06/26 00:02:05;;;;;;;4.75;3.50;;;;;;;17.65;66.12;95503.02;1805286;79;20984;-65
2022/06/26 00:04:33;;;;;;;5.67;3.33;;;;;;;17.64;66.62;95510.64;1805417;79;20972;-65
2022/06/26 00:07:00;;;;;;;5.45;3.58;;;;;;;17.63;66.12;95500.89;1805268;79;20983;-65
2022/06/26 00:09:28;;;;;;;6.37;3.62;;;;;;;17.61;66.58;95511.23;1805101;79;21505;-65
2022/06/26 00:11:56;;;;;;;7.43;3.37;;;;;;;17.63;66.24;95503.55;1805785;79;21003;-65
2022/06/26 00:14:23;;;;;;;5.45;3.00;;;;;;;17.71;66.69;95510.75;1805597;79;20968;-65
2022/06/26 00:16:50;;;;;;;6.15;3.47;;;;;;;17.69;66.54;95517.09;1805736;79;20996;-65
2022/06/26 00:19:17;;;;;;;4.35;2.90;;;;;;;17.60;66.97;95510.38;1805472;79;21508;-65
2022/06/26 00:21:44;;;;;;;4.40;3.35;;;;;;;17.68;67.80;95522.88;1805747;79;20959;-65
2022/06/26 00:24:11;;;;;;;4.53;3.17;;;;;;;17.68;67.80;95522.88;1805737;79;20963;-65
2022/06/26 00:26:38;;;;;;;5.15;3.90;;;;;;;17.74;67.48;95521.74;1805352;79;20976;-65
2022/06/26 00:29:05;;;;;;;3.50;2.95;;;;;;;17.80;67.52;95517.47;1805686;79;21003;-65
2022/06/26 00:31:31;;;;;;;5.05;2.90;;;;;;;17.80;67.70;95519.28;1805579;79;20980;-65
2022/06/26 00:33:58;;;;;;;5.10;3.12;;;;;;;17.82;67.15;95517.41;1805813;79;21054;-65
2022/06/26 00:36:25;;;;;;;3.90;2.95;;;;;;;17.86;66.83;95521.63;1805399;79;21123;-65
2022/06/26 00:38:52;;;;;;;4.08;3.15;;;;;;;17.90;66.64;95527.23;1805715;79;21430;-65
2022/06/26 00:41:20;;;;;;;6.10;3.58;;;;;;;17.85;67.20;95524.78;1805112;79;20999;-65
2022/06/26 00:43:47;;;;;;;4.22;3.00;;;;;;;17.86;67.48;95526.97;1805607;79;21059;-64
2022/06/26 00:46:13;;;;;;;3.58;3.27;;;;;;;17.87;67.13;95528.25;1805698;79;21474;-65
2022/06/26 00:48:40;;;;;;;6.05;3.35;;;;;;;17.83;67.04;95527.13;1805516;79;20991;-65
2022/06/26 00:51:07;;;;;;;3.72;3.35;;;;;;;17.80;67.12;95526.81;1805810;79;20999;-65
2022/06/26 00:53:34;;;;;;;5.55;3.75;;;;;;;17.70;68.92;95532.16;1805815;79;21454;-65
2022/06/26 00:56:01;;;;;;;9.18;4.58;;;;;;;17.67;70.12;95526.97;1805621;79;21469;-65
2022/06/26 00:58:28;;;;;;;6.78;3.67;;;;;;;17.58;69.09;95526.92;1808303;79;20980;-65
2022/06/26 01:00:56;;;;;;;4.75;3.52;;;;;;;17.59;69.95;95527.34;1808189;79;21469;-65
2022/06/26 01:03:22;;;;;;;7.35;3.55;;;;;;;17.53;71.20;95532.47;1808073;79;21050;-65
2022/06/26 01:05:49;;;;;;;4.70;3.50;;;;;;;17.46;71.69;95523.05;1808149;79;21035;-65
2022/06/26 01:08:17;;;;;;;4.35;3.75;;;;;;;17.43;70.85;95527.17;1808063;79;20991;-65
2022/06/26 01:10:49;;;;;;;6.55;3.65;;;;;;;17.38;71.44;95531.85;1808040;79;20995;-65
2022/06/26 01:13:17;;;;;;;6.67;3.65;;;;;;;17.37;71.81;95525.27;1808029;79;21481;-65
2022/06/26 01:15:44;;;;;;;6.72;4.10;;;;;;;17.36;70.83;95533.75;1808134;79;21015;-65
2022/06/26 01:18:11;;;;;;;9.05;4.15;;;;;;;17.35;72.21;95528.48;1808263;79;21000;-65
2022/06/26 01:20:40;;;;;;;4.83;4.00;;;;;;;17.26;73.78;95535.97;1808251;79;21476;-65
2022/06/26 01:23:08;;;;;;;5.87;3.85;;;;;;;17.15;72.64;95529.39;1807841;79;21019;-65
2022/06/26 01:25:47;;;;;;;5.35;3.65;;;;;;;17.15;72.64;95529.39;1808164;79;21453;-65
2022/06/26 01:28:16;;;;;;;3.87;3.05;;;;;;;17.10;73.87;95533.59;1808372;79;21000;-64
2022/06/26 01:30:44;;;;;;;9.35;3.70;;;;;;;17.09;72.41;95535.87;1808122;79;21043;-65
2022/06/26 01:33:11;;;;;;;5.58;3.72;;;;;;;16.95;73.74;95531.61;1808109;79;21541;-65
2022/06/26 01:35:38;;;;;;;4.25;3.65;;;;;;;16.95;73.74;95531.61;1808234;79;21043;-65
2022/06/26 01:38:22;;;;;;;6.75;3.45;;;;;;;16.92;73.69;95524.62;1807993;79;21042;-65
2022/06/26 01:40:52;;;;;;;3.85;3.20;;;;;;;16.92;74.05;95531.76;1779438;79;21079;-65
2022/06/26 01:43:26;;;;;;;4.55;3.87;;;;;;;16.87;73.18;95530.62;1808165;79;20991;-65
2022/06/26 01:45:55;;;;;;;5.33;3.27;;;;;;;16.83;73.37;95538.34;1808273;79;21496;-65
2022/06/26 01:48:25;;;;;;;3.25;2.95;;;;;;;16.83;73.38;95541.01;1807499;79;21032;-65
2022/06/26 01:50:54;;;;;;;5.08;3.20;;;;;;;16.84;73.06;95542.76;1807751;79;21023;-65
2022/06/26 01:53:22;;;;;;;5.42;3.10;;;;;;;16.79;73.80;95543.42;1808118;79;21062;-65
2022/06/26 01:55:49;;;;;;;3.55;3.22;;;;;;;16.72;73.45;95541.45;1807988;79;21023;-65
2022/06/26 01:58:19;;;;;;;5.15;3.35;;;;;;;16.70;74.92;95545.11;1806833;79;20980;-65
2022/06/26 02:00:47;;;;;;;5.75;3.22;;;;;;;16.75;73.62;95541.31;1807966;79;21019;-65
2022/06/26 02:03:17;;;;;;;4.58;3.47;;;;;;;16.75;73.62;95541.31;1808096;79;21461;-65
2022/06/26 02:05:45;;;;;;;7.33;3.08;;;;;;;16.78;73.47;95547.00;1808232;79;21505;-65
2022/06/26 02:08:14;;;;;;;7.92;3.60;;;;;;;16.77;73.62;95542.12;1808191;79;21509;-65
2022/06/26 02:13:42;;;;;;;3.70;3.17;;;;;;;16.83;73.91;95549.00;1808090;79;21481;-65
2022/06/26 02:16:22;;;;;;;4.08;3.37;;;;;;;16.86;73.31;95549.75;1808166;79;21023;-65
2022/06/26 02:18:52;;;;;;;5.00;3.40;;;;;;;16.87;74.09;95552.80;1807878;79;21466;-65
2022/06/26 02:21:23;;;;;;;3.95;2.80;;;;;;;16.92;73.70;95554.41;1808208;79;21486;-65
2022/06/26 02:23:52;;;;;;;3.58;3.27;;;;;;;16.80;73.12;95554.00;1808348;79;21047;-65
2022/06/26 02:26:19;;;;;;;3.37;2.90;;;;;;;16.80;73.12;95554.00;1807904;79;21038;-65
2022/06/26 02:28:48;;;;;;;3.60;3.10;;;;;;;16.75;73.72;95551.11;1808246;79;21457;-64
2022/06/26 02:31:15;;;;;;;5.78;3.22;;;;;;;16.69;73.87;95554.91;1808064;79;20999;-65
2022/06/26 02:33:42;;;;;;;5.60;3.35;;;;;;;16.63;75.07;95557.83;1807911;79;21021;-65
2022/06/26 02:36:09;;;;;;;4.70;3.02;;;;;;;16.63;74.44;95556.05;1807930;79;21007;-65
2022/06/26 02:38:38;;;;;;;4.12;3.62;;;;;;;16.63;74.44;95556.05;1808005;79;21126;-64
2022/06/26 02:41:05;;;;;;;5.55;3.15;;;;;;;16.60;74.31;95557.96;1807603;79;20980;-64
2022/06/26 02:43:34;;;;;;;8.65;3.30;;;;;;;16.57;74.66;95560.77;1808100;79;21012;-65
2022/06/26 02:46:03;;;;;;;4.97;3.20;;;;;;;16.59;74.24;95558.91;1808172;79;20999;-65
2022/06/26 02:48:30;;;;;;;3.92;3.40;;;;;;;16.56;73.78;95563.04;1807966;79;21006;-65
2022/06/26 02:50:57;;;;;;;3.52;3.00;;;;;;;16.52;73.64;95561.42;1808102;79;21019;-65
2022/06/26 02:53:24;;;;;;;4.08;3.02;;;;;;;16.51;73.76;95564.56;1808234;79;20939;-64
2022/06/26 02:55:51;;;;;;;3.67;3.25;;;;;;;16.46;73.75;95561.70;1807932;79;20996;-65
2022/06/26 02:58:18;;;;;;;3.52;3.02;;;;;;;16.46;74.38;95557.70;1805499;79;21023;-65
2022/06/26 03:00:53;;;;;;;4.90;3.37;;;;;;;16.46;74.38;95557.70;1804847;79;21035;-65
2022/06/26 03:03:20;;;;;;;5.37;3.10;;;;;;;16.47;75.08;95557.62;1805485;79;21015;-65
2022/06/26 03:05:46;;;;;;;5.53;3.42;;;;;;;16.54;74.63;95556.91;1805527;79;20983;-65
2022/06/26 03:08:13;;;;;;;3.98;3.02;;;;;;;16.57;74.21;95556.77;1805563;79;21027;-65
2022/06/26 03:10:40;;;;;;;4.28;3.20;;;;;;;16.58;74.45;95563.81;1805531;79;21022;-64
2022/06/26 03:13:06;;;;;;;3.65;3.02;;;;;;;16.64;73.74;95560.91;1805502;79;21465;-65
2022/06/26 03:15:33;;;;;;;4.00;3.10;;;;;;;16.73;74.02;95564.95;1805182;79;21059;-65
2022/06/26 03:18:02;;;;;;;3.47;3.00;;;;;;;16.73;74.02;95564.95;1805480;79;21111;-65
2022/06/26 03:20:30;;;;;;;5.25;3.20;;;;;;;16.72;73.35;95566.77;1805506;79;21453;-65
2022/06/26 03:22:56;;;;;;;4.08;3.27;;;;;;;16.78;73.77;95564.32;1805494;79;20936;-64
2022/06/26 03:25:23;;;;;;;4.33;3.40;;;;;;;16.87;74.46;95566.13;1805546;79;21501;-65
2022/06/26 03:27:51;;;;;;;3.92;3.17;;;;;;;16.87;74.46;95566.13;1805873;79;20964;-65
2022/06/26 03:30:19;;;;;;;3.83;3.42;;;;;;;16.95;75.27;95561.79;1805514;79;21070;-64
2022/06/26 03:32:50;;;;;;;6.85;3.67;;;;;;;16.95;74.83;95560.93;1805224;79;21055;-65
2022/06/26 03:35:17;;;;;;;5.00;3.58;;;;;;;17.02;74.05;95573.06;1805597;79;21003;-64
2022/06/26 03:37:45;;;;;;;8.50;4.03;;;;;;;17.02;74.05;95573.06;1805321;79;21504;-65
2022/06/26 03:40:13;;;;;;;4.80;3.60;;;;;;;17.05;74.42;95568.44;1805593;79;21008;-65
2022/06/26 03:42:39;;;;;;;6.97;3.40;;;;;;;17.25;73.32;95566.22;1784922;79;21500;-65
2022/06/26 03:45:08;;;;;;;6.67;3.60;;;;;;;17.25;73.32;95566.22;1805930;79;20956;-65
2022/06/26 03:47:35;;;;;;;5.37;3.77;;;;;;;17.42;73.35;95572.60;1805840;79;21434;-65
2022/06/26 03:50:04;;;;;;;4.15;3.62;;;;;;;17.59;73.14;95582.47;1805266;79;21004;-65
2022/06/26 03:52:31;;;;;;;7.37;4.10;;;;;;;17.68;73.76;95577.58;1785593;79;21477;-65
2022/06/26 03:55:00;;;;;;;4.90;4.05;;;;;;;17.77;73.06;95584.78;1805461;79;20964;-65
2022/06/26 03:57:27;;;;;;;6.37;3.85;;;;;;;17.86;72.55;95585.22;1806605;79;21015;-65
2022/06/26 03:59:56;;;;;;;7.03;3.87;;;;;;;17.87;71.89;95582.11;1808215;79;21466;-64
2022/06/26 04:02:42;;;;;;;9.58;5.17;;;;;;;17.97;70.81;95582.06;1808325;79;20987;-64
2022/06/26 04:05:10;;;;;;;4.67;4.28;;;;;;;18.11;70.43;95578.71;1808029;79;20988;-65
2022/06/26 04:07:38;;;;;;;4.05;3.70;;;;;;;18.25;70.19;95574.91;1808184;79;21494;-65
2022/06/26 04:10:16;;;;;;;4.45;4.03;;;;;;;18.37;69.69;95579.65;1796798;79;21001;-65
2022/06/26 04:12:42;;;;;;;5.00;4.05;;;;;;;18.47;68.78;95576.05;1808013;79;20963;-65
2022/06/26 04:15:10;;;;;;;4.25;3.85;;;;;;;18.57;69.26;95577.77;1808283;79;21011;-65
2022/06/26 04:17:39;;;;;;;6.60;4.10;;;;;;;18.72;69.30;95574.80;1808164;79;21034;-65
2022/06/26 04:20:08;;;;;;;5.55;4.25;;;;;;;18.87;68.78;95578.05;1808176;79;20995;-65
2022/06/26 04:22:35;;;;;;;4.75;3.95;;;;;;;19.02;68.03;95575.95;1808167;79;20982;-65
2022/06/26 04:25:04;;;;;;;7.28;4.10;;;;;;;19.16;66.28;95585.91;1807613;79;21844;-65
2022/06/26 04:27:31;;;;;;;4.47;3.67;;;;;;;19.28;65.99;95574.15;1808025;79;21503;-65
2022/06/26 04:29:57;;;;;;;7.58;4.45;;;;;;;19.42;66.00;95576.48;1808264;79;21532;-65
2022/06/26 04:32:24;;;;;;;5.08;3.98;;;;;;;19.52;63.99;95579.53;1807786;79;20984;-65
2022/06/26 04:34:52;;;;;;;4.40;4.00;;;;;;;19.61;64.48;95575.52;1808125;79;21474;-65
2022/06/26 04:37:19;;;;;;;5.55;3.87;;;;;;;19.70;63.07;95579.03;1808271;79;20967;-65
2022/06/26 04:39:46;;;;;;;4.37;3.98;;;;;;;19.82;63.25;95578.84;1776732;79;21517;-65
2022/06/26 04:42:14;;;;;;;4.60;4.17;;;;;;;19.97;63.76;95578.47;1807683;79;21015;-65
2022/06/26 04:44:41;;;;;;;4.33;3.92;;;;;;;20.15;63.65;95588.14;1808292;79;20988;-65
2022/06/26 04:47:07;;;;;;;5.50;3.75;;;;;;;20.27;62.30;95586.59;1808076;79;21509;-65
2022/06/26 04:49:36;;;;;;;4.25;3.80;;;;;;;20.36;62.23;95583.39;1805317;79;21573;-65
2022/06/26 04:52:04;;;;;;;6.22;3.85;;;;;;;20.45;62.62;95583.33;1808483;79;20995;-65
2022/06/26 04:54:32;;;;;;;6.12;3.62;;;;;;;20.53;61.65;95584.59;1807275;79;21050;-65
2022/06/26 04:56:59;;;;;;;6.10;3.60;;;;;;;20.63;61.60;95588.13;1807295;79;21019;-65
2022/06/26 04:59:26;;;;;;;6.00;3.20;;;;;;;20.72;60.34;95584.92;1800533;79;20971;-65
2022/06/26 05:01:55;;;;;;;5.87;3.10;;;;;;;20.83;60.38;95587.81;1799132;79;20992;-65
2022/06/26 05:04:40;;;;;;;6.83;4.10;;;;;;;20.95;57.90;95592.94;1800409;79;20996;-65
2022/06/26 05:07:14;;;;;;;4.40;3.90;;;;;;;21.05;58.15;95591.43;1797906;79;21020;-65
2022/06/26 05:09:41;;;;;;;7.97;5.05;;;;;;;21.16;58.13;95592.12;1800240;79;21039;-65
2022/06/26 05:12:08;;;;;;;6.22;5.12;;;;;;;21.22;57.14;95595.79;1800423;79;20999;-65
2022/06/26 05:14:54;;;;;;;9.05;4.45;;;;;;;21.29;57.65;95594.47;1800464;79;20996;-65
2022/06/26 05:17:22;;;;;;;10.28;4.45;;;;;;;21.35;57.41;95598.10;1798778;79;21008;-65
2022/06/26 05:19:49;;;;;;;5.72;4.55;;;;;;;21.43;57.79;95603.52;1800569;79;21035;-65
2022/06/26 05:22:16;;;;;;;7.30;4.20;;;;;;;21.49;56.93;95611.19;1799994;79;21477;-65
2022/06/26 05:24:44;;;;;;;7.37;4.50;;;;;;;21.48;56.48;95610.81;1800245;79;21054;-65
2022/06/26 05:27:11;;;;;;;4.33;3.50;;;;;;;21.54;57.21;95617.13;1800186;80;21423;-65
2022/06/26 05:29:39;;;;;;;4.62;3.52;;;;;;;21.60;57.04;95614.94;1800122;80;21051;-65
2022/06/26 05:32:07;;;;;;;5.53;3.72;;;;;;;21.71;56.96;95618.78;1800352;79;20991;-65
2022/06/26 05:34:33;;;;;;;4.78;3.65;;;;;;;21.81;56.44;95621.27;1800285;79;20979;-65
2022/06/26 05:37:00;;;;;;;6.35;3.40;;;;;;;21.88;56.11;95623.96;1800308;79;21000;-65
2022/06/26 05:39:27;;;;;;;6.22;3.50;;;;;;;21.98;56.24;95624.25;1780084;80;21003;-65
2022/06/26 05:41:54;;;;;;;7.15;3.60;;;;;;;21.99;54.61;95628.16;1799886;79;21019;-65
2022/06/26 05:44:20;;;;;;;6.45;3.15;;;;;;;21.98;54.18;95630.48;1800335;79;20987;-65
2022/06/26 05:46:49;;;;;;;5.55;3.27;;;;;;;22.07;54.39;95629.51;1800294;79;21545;-65
2022/06/26 05:49:23;;;;;;;3.52;3.00;;;;;;;22.12;54.32;95635.45;1797594;79;21003;-65
2022/06/26 05:51:55;;;;;;;5.37;3.35;;;;;;;22.22;54.55;95635.28;1797836;79;20988;-65
2022/06/26 05:54:30;;;;;;;3.30;2.80;;;;;;;22.35;54.30;95641.62;1799252;79;21023;-65
2022/06/26 05:56:58;;;;;;;8.25;3.00;;;;;;;22.43;54.13;95639.29;1796701;79;21034;-65
2022/06/26 05:59:29;;;;;;;4.33;3.00;;;;;;;22.57;54.49;95647.78;1806368;79;21018;-65
2022/06/26 06:02:01;;;;;;;5.65;2.50;;;;;;;22.70;52.85;95651.88;1805735;79;21462;-65
2022/06/26 06:04:28;;;;;;;4.00;2.70;;;;;;;22.80;52.22;95651.65;1808059;79;21007;-65
2022/06/26 06:06:57;;;;;;;5.65;2.25;;;;;;;22.89;51.42;95648.36;1807967;79;21513;-65
2022/06/26 06:09:24;;;;;;;5.33;2.60;;;;;;;22.96;50.14;95651.52;1807905;79;21533;-65
2022/06/26 06:11:52;;;;;;;4.20;2.52;;;;;;;23.09;50.80;95653.79;1807733;79;21079;-65
2022/06/26 06:14:19;;;;;;;3.83;2.30;;;;;;;23.19;49.72;95652.69;1807971;79;21473;-65
2022/06/26 06:16:45;;;;;;;5.10;2.40;;;;;;;23.26;49.36;95651.31;1808453;79;20979;-65
2022/06/26 06:19:12;;;;;;;3.52;2.40;;;;;;;23.33;48.56;95652.62;1807853;79;21050;-65
2022/06/26 06:21:41;;;;;;;4.00;2.60;;;;;;;23.41;48.75;95653.91;1808262;79;20978;-65
2022/06/26 06:24:08;;;;;;;5.80;2.60;;;;;;;23.45;48.66;95652.25;1807623;79;21046;-65
2022/06/26 06:26:36;;;;;;;3.67;2.62;;;;;;;23.59;48.11;95654.50;1807810;79;21019;-65
2022/06/26 06:29:14;;;;;;;3.47;2.60;;;;;;;23.67;48.94;95651.63;1807910;79;21037;-65
2022/06/26 06:31:41;;;;;;;5.53;2.75;;;;;;;23.84;48.93;95655.88;1807926;79;20983;-65
2022/06/26 06:34:08;;;;;;;3.22;2.60;;;;;;;23.97;47.69;95651.84;1808195;79;20991;-65
2022/06/26 06:36:35;;;;;;;5.10;2.60;;;;;;;23.98;45.95;95650.85;1808232;79;21520;-65
2022/06/26 06:39:03;;;;;;;3.42;2.37;;;;;;;23.97;45.82;95658.58;1776815;79;21007;-65
2022/06/26 06:41:30;;;;;;;3.50;2.30;;;;;;;23.95;46.61;95655.97;1808028;79;21077;-65
2022/06/26 06:44:02;;;;;;;2.98;2.62;;;;;;;24.03;46.60;95662.17;1807132;79;21500;-65
2022/06/26 06:46:28;;;;;;;3.05;2.40;;;;;;;24.11;46.46;95662.97;1807926;79;21086;-65
2022/06/26 06:49:00;;;;;;;3.92;2.52;;;;;;;24.19;46.22;95661.47;1808128;79;21039;-65
2022/06/26 06:51:37;;;;;;;3.83;2.30;;;;;;;24.31;45.87;95652.96;1805995;79;21043;-65
2022/06/26 06:54:04;;;;;;;4.55;2.33;;;;;;;24.47;46.19;95651.88;1807809;79;21011;-65
2022/06/26 06:56:31;;;;;;;3.77;2.55;;;;;;;24.57;45.07;95648.91;1807802;79;21019;-65
2022/06/26 06:59:00;;;;;;;2.60;2.40;;;;;;;24.63;44.22;95649.80;1802142;79;21035;-65
2022/06/26 07:01:27;;;;;;;2.65;2.37;;;;;;;24.72;43.85;95647.78;1800171;79;21011;-65
2022/06/26 07:03:54;;;;;;;5.70;2.55;;;;;;;24.58;43.30;95650.13;1800255;79;20996;-65
2022/06/26 07:06:21;;;;;;;4.42;2.42;;;;;;;24.57;43.80;95647.56;1800299;79;21035;-65
2022/06/26 07:08:48;;;;;;;6.40;3.12;;;;;;;24.76;45.07;95651.10;1799859;80;21026;-65
2022/06/26 07:11:16;;;;;;;3.80;2.62;;;;;;;24.92;44.80;95642.25;1800272;79;21050;-65
2022/06/26 07:13:43;;;;;;;6.20;3.22;;;;;;;25.01;44.05;95640.69;1800124;79;21047;-65
2022/06/26 07:16:11;;;;;;;4.25;2.22;;;;;;;25.16;44.76;95641.37;1799877;80;21549;-65
2022/06/26 07:18:38;;;;;;;3.17;2.40;;;;;;;25.30;44.32;95643.92;1800145;79;21015;-65
2022/06/26 07:21:07;;;;;;;4.50;2.45;;;;;;;25.41;42.76;95643.95;1800178;79;21465;-65
2022/06/26 07:23:36;;;;;;;5.60;2.33;;;;;;;25.50;42.77;95641.02;1800238;80;20992;-65
2022/06/26 07:26:05;;;;;;;4.78;2.50;;;;;;;25.68;43.21;95643.66;1799698;79;21075;-65
2022/06/26 07:28:34;;;;;;;3.62;2.37;;;;;;;25.88;43.15;95646.19;1798896;79;21549;-65
2022/06/26 07:31:01;;;;;;;3.52;2.40;;;;;;;25.97;41.15;95647.30;1800265;79;21051;-65
2022/06/26 07:36:13;;;;;;;4.40;2.40;;;;;;;26.12;41.15;95642.02;1799998;79;21027;-65
2022/06/26 07:38:41;;;;;;;5.65;2.40;;;;;;;26.27;40.84;95641.78;1800161;80;20960;-65
2022/06/26 07:41:08;;;;;;;5.00;2.20;;;;;;;26.38;40.39;95636.35;1800357;79;20980;-65
2022/06/26 07:43:35;;;;;;;2.15;1.95;;;;;;;26.56;40.80;95640.83;1799781;79;21019;-65
2022/06/26 07:46:02;;;;;;;3.60;2.55;;;;;;;26.64;40.28;95646.47;1800468;79;20996;-65
2022/06/26 07:48:28;;;;;;;2.25;2.05;;;;;;;26.70;39.63;95641.03;1799843;79;21059;-65
2022/06/26 07:50:56;;;;;;;5.58;2.22;;;;;;;26.56;39.81;95640.83;1800162;79;20998;-65
2022/06/26 07:53:23;;;;;;;3.58;2.75;;;;;;;26.59;39.53;95647.83;1800091;79;21000;-65
2022/06/26 07:55:50;;;;;;;3.25;2.60;;;;;;;26.59;40.06;95645.12;1800024;79;21537;-65
2022/06/26 07:58:16;;;;;;;4.60;2.30;;;;;;;26.58;39.91;95650.15;1802554;79;21055;-65
2022/06/26 08:00:43;;;;;;;4.10;2.40;;;;;;;26.58;40.39;95647.44;1808159;79;21462;-66
2022/06/26 08:03:15;;;;;;;2.55;2.33;;;;;;;26.57;39.52;95645.23;1807862;79;21525;-65
2022/06/26 08:05:43;;;;;;;2.47;2.10;;;;;;;26.53;38.94;95643.28;1808309;79;21008;-65
2022/06/26 08:08:10;;;;;;;5.72;2.33;;;;;;;26.61;38.99;95649.89;1808118;79;21047;-65
2022/06/26 08:10:37;;;;;;;3.45;2.22;;;;;;;26.67;39.34;95646.20;1807704;79;21015;-65
2022/06/26 08:13:06;;;;;;;4.17;2.50;;;;;;;26.71;38.40;95646.33;1807929;79;21049;-65
2022/06/26 08:15:34;;;;;;;6.78;2.60;;;;;;;26.76;38.98;95653.58;1808053;79;21004;-65
2022/06/26 08:18:01;;;;;;;4.10;2.40;;;;;;;26.74;38.48;95651.48;1807955;79;21015;-65
2022/06/26 08:20:28;;;;;;;4.00;2.47;;;;;;;26.81;39.02;95653.67;1808161;79;21481;-65
2022/06/26 08:22:55;;;;;;;4.67;2.50;;;;;;;27.01;39.73;95653.38;1777292;79;21023;-65
2022/06/26 08:25:21;;;;;;;4.08;2.70;;;;;;;27.10;38.74;95653.48;1808114;79;20968;-65
2022/06/26 08:27:48;;;;;;;6.58;2.65;;;;;;;27.15;39.24;95656.66;1808111;79;21035;-65
2022/06/26 08:30:15;;;;;;;4.22;3.20;;;;;;;27.25;38.19;95657.29;1807951;79;20987;-65
2022/06/26 08:32:42;;;;;;;3.33;2.50;;;;;;;27.30;37.17;95653.70;1808336;79;20975;-65
2022/06/26 08:35:11;;;;;;;2.70;2.40;;;;;;;27.30;37.51;95661.83;1808484;79;20991;-65
2022/06/26 08:37:38;;;;;;;6.72;2.47;;;;;;;27.34;37.44;95654.67;1808087;79;21433;-65
2022/06/26 08:40:07;;;;;;;4.72;2.30;;;;;;;27.50;37.56;95656.08;1808037;79;20968;-65
2022/06/26 08:42:39;;;;;;;3.60;2.17;;;;;;;27.66;37.08;95656.47;1808410;79;21454;-65
2022/06/26 08:45:07;;;;;;;4.47;2.17;;;;;;;27.81;36.55;95659.24;1777152;79;21090;-65
2022/06/26 08:47:41;;;;;;;3.35;2.22;;;;;;;27.77;35.74;95653.70;1808227;79;21504;-65
2022/06/26 08:50:08;;;;;;;;;;;;;;;27.76;35.29;95658.75;1810734;79;21063;-65
2022/06/26 08:52:35;;;;;;;2.40;1.92;;;;;;;27.82;34.84;95657.39;1808258;79;20412;-65
2022/06/26 08:55:04;;;;;;;2.42;2.20;;;;;;;27.96;35.06;95665.19;1808028;79;21019;-65
2022/06/26 08:57:33;;;;;;;4.05;2.15;;;;;;;27.88;33.91;95660.09;1808364;79;20991;-65
2022/06/26 09:00:01;;;;;;;3.75;2.27;;;;;;;27.96;35.01;95662.98;1805689;79;21054;-65
2022/06/26 09:02:28;;;;;;;2.75;2.55;;;;;;;28.08;35.08;95660.56;1805525;79;20987;-65
2022/06/26 09:04:56;;;;;;;3.27;2.33;;;;;;;28.24;35.02;95656.84;1805490;79;21011;-66
2022/06/26 09:07:23;;;;;;;3.45;2.60;;;;;;;28.37;34.44;95651.70;1805797;79;21034;-65
2022/06/26 09:09:50;;;;;;;3.80;2.30;;;;;;;28.57;34.86;95648.59;1805329;79;21130;-65
2022/06/26 09:12:17;;;;;;;4.78;2.45;;;;;;;28.78;34.79;95650.75;1805245;79;21062;-65
2022/06/26 09:14:44;;;;;;;4.55;2.58;;;;;;;28.84;34.05;95639.32;1805584;79;21027;-67
2022/06/26 09:17:12;;;;;;;4.50;2.65;;;;;;;28.91;33.95;95647.78;1805884;79;21019;-68
2022/06/26 09:19:43;;;;;;;4.65;2.67;;;;;;;28.67;34.60;95645.41;1805377;79;21031;-67
2022/06/26 09:22:15;;;;;;;3.80;2.67;;;;;;;28.39;35.18;95651.06;1805435;79;21034;-67
2022/06/26 09:24:58;;;;;;;4.60;2.70;;;;;;;28.22;35.48;95659.34;1805649;79;21054;-65
2022/06/26 09:27:25;;;;;;;3.17;2.70;;;;;;;28.01;36.06;95654.80;1805621;79;21026;-65
2022/06/26 09:29:55;;;;;;;5.28;3.08;;;;;;;27.87;36.16;95656.99;1805543;79;21011;-65
2022/06/26 09:32:24;;;;;;;6.85;3.00;;;;;;;27.57;35.89;95656.77;1805613;79;21000;-65
2022/06/26 09:34:54;;;;;;;3.40;3.10;;;;;;;27.39;36.65;95653.78;1805431;79;21027;-65
2022/06/26 09:37:23;;;;;;;5.72;3.20;;;;;;;27.45;37.03;95656.45;1805448;79;21023;-65
2022/06/26 09:40:00;;;;;;;5.12;3.17;;;;;;;27.77;36.21;95659.60;1805780;79;21086;-65
2022/06/26 09:42:27;;;;;;;5.15;3.17;;;;;;;28.07;35.42;95662.04;1805091;79;21059;-65
2022/06/26 09:44:55;;;;;;;3.42;2.83;;;;;;;28.35;35.79;95649.14;1805595;79;21047;-65
2022/06/26 09:47:29;;;;;;;4.90;3.02;;;;;;;28.34;35.13;95652.83;1805239;79;21067;-65
2022/06/26 09:49:58;;;;;;;5.97;2.80;;;;;;;28.11;35.55;95653.50;1785059;79;21007;-65
2022/06/26 09:52:29;;;;;;;4.60;2.83;;;;;;;27.78;35.84;95655.92;1805593;79;20980;-65
2022/06/26 09:54:58;;;;;;;3.20;2.92;;;;;;;27.90;36.63;95656.25;1805675;79;21011;-65
2022/06/26 09:57:26;;;;;;;4.15;3.05;;;;;;;28.45;36.79;95647.36;1805572;79;21438;-65
2022/06/26 09:59:55;;;;;;;3.33;2.90;;;;;;;28.88;34.63;95634.48;1807083;79;21015;-65
2022/06/26 10:08:03;;;;;;;4.33;2.95;;;;;;;29.58;33.54;95649.36;1808257;79;21481;-65
2022/06/26 10:10:32;;;;;;;5.37;2.90;;;;;;;29.53;33.42;95640.27;1806852;79;21034;-65
2022/06/26 10:13:04;;;;;;;3.17;2.87;;;;;;;29.38;33.02;95653.42;1808107;79;20999;-65
2022/06/26 10:15:50;;;;;;;3.47;3.10;;;;;;;28.94;33.45;95642.06;1808254;79;20975;-65
2022/06/26 10:18:59;;;;;;;3.27;2.98;;;;;;;28.68;33.96;95646.64;1808116;79;21679;-65
2022/06/26 10:21:26;;;;;;;4.03;2.80;;;;;;;28.79;34.68;95647.53;1808050;79;20995;-65
2022/06/26 10:24:02;;;;;;;3.42;3.10;;;;;;;29.47;34.18;95640.86;1807719;79;21553;-65
2022/06/26 10:26:29;;;;;;;3.05;2.77;;;;;;;29.49;33.25;95643.78;1808167;79;21022;-65
2022/06/26 10:29:06;;;;;;;5.12;2.98;;;;;;;29.66;32.84;95646.33;1807927;79;20996;-65
2022/06/26 10:31:47;;;;;;;2.87;2.37;;;;;;;29.42;32.77;95641.28;1808142;79;21010;-65
2022/06/26 10:34:22;;;;;;;4.97;2.70;;;;;;;29.28;33.27;95634.42;1808210;79;21003;-65
2022/06/26 10:37:14;;;;;;;5.25;2.60;;;;;;;28.77;33.61;95634.59;1808113;79;21050;-65
2022/06/26 10:39:49;;;;;;;4.10;3.02;;;;;;;28.36;34.16;95635.92;1808279;79;20991;-65
2022/06/26 10:45:24;;;;;;;3.15;2.85;;;;;;;27.85;35.58;95640.87;1808057;79;21445;-65
2022/06/26 10:47:55;;;;;;;3.72;3.00;;;;;;;27.94;35.71;95635.13;1808269;79;20971;-65
2022/06/26 10:50:35;;;;;;;4.37;2.80;;;;;;;27.93;36.35;95638.34;1808528;79;21515;-65
2022/06/26 10:53:19;;;;;;;3.05;2.58;;;;;;;27.89;36.36;95630.61;1808049;79;21043;-65
2022/06/26 10:55:53;;;;;;;5.87;3.12;;;;;;;27.80;37.24;95636.31;1808237;79;20956;-65
2022/06/26 10:58:27;;;;;;;5.12;3.30;;;;;;;27.68;37.17;95635.52;1798757;79;21399;-65
2022/06/26 11:01:01;;;;;;;4.62;2.83;;;;;;;27.69;37.25;95641.79;1805614;79;21059;-65
2022/06/26 11:03:30;;;;;;;4.35;3.10;;;;;;;27.63;36.83;95632.34;1805620;79;21064;-65
2022/06/26 11:06:03;;;;;;;3.72;3.08;;;;;;;27.73;36.55;95627.84;1805448;79;21008;-65
2022/06/26 11:08:37;;;;;;;5.87;3.40;;;;;;;28.09;36.34;95623.44;1805654;79;21023;-65
2022/06/26 11:11:14;;;;;;;6.83;3.00;;;;;;;28.23;36.39;95619.88;1805543;79;20987;-65
2022/06/26 11:13:56;;;;;;;8.15;3.20;;;;;;;28.28;35.88;95615.91;1805270;79;21011;-65
2022/06/26 11:16:35;;;;;;;7.80;3.40;;;;;;;28.33;35.91;95623.14;1804262;79;21473;-65
2022/06/26 11:19:06;;;;;;;4.75;3.22;;;;;;;28.23;36.35;95622.59;1805552;79;20999;-65
2022/06/26 11:21:33;;;;;;;4.03;3.30;;;;;;;28.16;36.20;95624.13;1805667;79;21453;-65
2022/06/26 11:24:01;;;;;;;5.72;3.17;;;;;;;28.00;35.76;95628.69;1805504;79;21023;-65
2022/06/26 11:26:28;;;;;;;3.77;3.40;;;;;;;27.95;36.68;95624.16;1805668;79;20995;-65
2022/06/26 11:29:04;;;;;;;3.42;3.12;;;;;;;27.94;36.21;95622.93;1805466;79;20987;-65
2022/06/26 11:31:33;;;;;;;6.28;3.70;;;;;;;27.89;36.46;95626.54;1805534;79;20986;-65
2022/06/26 11:34:15;;;;;;;5.83;4.00;;;;;;;27.97;36.50;95626.72;1805712;79;21035;-65
2022/06/26 11:36:56;;;;;;;7.53;3.37;;;;;;;28.01;36.58;95622.26;1805678;79;21019;-65
2022/06/26 11:39:24;;;;;;;6.37;4.30;;;;;;;28.03;36.10;95616.71;1804467;79;21011;-65
2022/06/26 11:41:51;;;;;;;6.15;4.72;;;;;;;28.02;36.70;95620.39;1805410;79;21004;-65
2022/06/26 11:44:18;;;;;;;4.85;4.10;;;;;;;28.01;36.81;95624.12;1805212;79;20976;-65
2022/06/26 11:46:45;;;;;;;5.33;4.00;;;;;;;27.77;37.21;95625.71;1805605;79;21047;-65
2022/06/26 11:49:12;;;;;;;4.37;3.70;;;;;;;27.61;38.10;95624.33;1805550;79;20999;-65
2022/06/26 11:51:39;;;;;;;5.47;3.77;;;;;;;27.46;39.50;95624.80;1805782;79;21035;-65
2022/06/26 11:54:06;;;;;;;4.20;3.40;;;;;;;27.35;38.92;95623.01;1805804;79;21067;-65
2022/06/26 11:56:33;;;;;;;4.78;3.72;;;;;;;27.21;39.20;95626.02;1805505;79;20976;-65
2022/06/26 11:59:00;;;;;;;4.95;3.83;;;;;;;27.06;39.89;95618.66;1781037;80;20971;-65